sensor_id;sensor_type;location;lat;lon;timestamp;pressure;altitude;pressure_sealevel;temperature;humidity
27304;BME280;14791;52.392;13.092;2023-02-20T00:01:50;101780.11;;;8.47;49.91
27304;BME280;14791;52.392;13.092;2023-02-20T00:04:20;101784.62;;;8.45;49.96
27304;BME280;14791;52.392;13.092;2023-02-20T00:06:49;101770.91;;;8.44;50.02
27304;BME280;14791;52.392;13.092;2023-02-20T00:09:18;101761.20;;;8.43;50.03
27304;BME280;14791;52.392;13.092;2023-02-20T00:11:47;101763.44;;;8.42;50.04
27304;BME280;14791;52.392;13.092;2023-02-20T00:14:16;101750.64;;;8.40;50.04
27304;BME280;14791;52.392;13.092;2023-02-20T00:16:46;101752.88;;;8.39;50.08
27304;BME280;14791;52.392;13.092;2023-02-20T00:19:15;101745.01;;;8.36;50.08
27304;BME280;14791;52.392;13.092;2023-02-20T00:21:46;101729.55;;;8.34;50.15
27304;BME280;14791;52.392;13.092;2023-02-20T00:24:16;101743.38;;;8.31;50.19
27304;BME280;14791;52.392;13.092;2023-02-20T00:26:50;101749.60;;;8.30;50.22
27304;BME280;14791;52.392;13.092;2023-02-20T00:29:21;101748.82;;;8.28;50.25
27304;BME280;14791;52.392;13.092;2023-02-20T00:31:52;101748.86;;;8.27;50.30
27304;BME280;14791;52.392;13.092;2023-02-20T00:34:23;101751.17;;;8.24;50.34
27304;BME280;14791;52.392;13.092;2023-02-20T00:36:52;101738.33;;;8.24;50.39
27304;BME280;14791;52.392;13.092;2023-02-20T00:39:21;101731.72;;;8.22;50.41
27304;BME280;14791;52.392;13.092;2023-02-20T00:41:50;101728.67;;;8.21;50.42
27304;BME280;14791;52.392;13.092;2023-02-20T00:44:19;101730.44;;;8.21;50.47
27304;BME280;14791;52.392;13.092;2023-02-20T00:46:48;101730.52;;;8.19;50.50
27304;BME280;14791;52.392;13.092;2023-02-20T00:49:17;101731.84;;;8.19;50.52
27304;BME280;14791;52.392;13.092;2023-02-20T00:51:46;101724.37;;;8.17;50.57
27304;BME280;14791;52.392;13.092;2023-02-20T00:54:15;101717.76;;;8.16;50.63
27304;BME280;14791;52.392;13.092;2023-02-20T00:56:45;101720.89;;;8.15;50.71
27304;BME280;14791;52.392;13.092;2023-02-20T00:59:14;101714.23;;;8.15;50.75
27304;BME280;14791;52.392;13.092;2023-02-20T01:01:43;101719.56;;;8.15;50.78
27304;BME280;14791;52.392;13.092;2023-02-20T01:04:12;101710.20;;;8.17;50.78
27304;BME280;14791;52.392;13.092;2023-02-20T01:06:42;101705.73;;;8.17;50.82
27304;BME280;14791;52.392;13.092;2023-02-20T01:09:12;101703.98;;;8.16;50.89
27304;BME280;14791;52.392;13.092;2023-02-20T01:11:43;101705.73;;;8.17;50.96
27304;BME280;14791;52.392;13.092;2023-02-20T01:14:13;101706.12;;;8.18;51.03
27304;BME280;14791;52.392;13.092;2023-02-20T01:16:47;101704.29;;;8.20;51.10
27304;BME280;14791;52.392;13.092;2023-02-20T01:19:19;101700.17;;;8.23;51.15
27304;BME280;14791;52.392;13.092;2023-02-20T01:21:49;101694.34;;;8.25;51.20
27304;BME280;14791;52.392;13.092;2023-02-20T01:24:18;101687.59;;;8.28;51.24
27304;BME280;14791;52.392;13.092;2023-02-20T01:26:48;101688.29;;;8.34;51.28
27304;BME280;14791;52.392;13.092;2023-02-20T01:29:17;101685.45;;;8.38;51.30
27304;BME280;14791;52.392;13.092;2023-02-20T01:31:48;101669.34;;;8.43;51.28
27304;BME280;14791;52.392;13.092;2023-02-20T01:34:19;101665.09;;;8.49;51.22
27304;BME280;14791;52.392;13.092;2023-02-20T01:36:51;101654.80;;;8.51;51.25
27304;BME280;14791;52.392;13.092;2023-02-20T01:39:23;101652.81;;;8.57;51.21
27304;BME280;14791;52.392;13.092;2023-02-20T01:42:04;101641.17;;;8.59;51.22
27304;BME280;14791;52.392;13.092;2023-02-20T01:44:35;101636.14;;;8.63;51.20
27304;BME280;14791;52.392;13.092;2023-02-20T01:47:14;101631.67;;;8.64;51.18
27304;BME280;14791;52.392;13.092;2023-02-20T01:49:54;101626.30;;;8.65;51.19
27304;BME280;14791;52.392;13.092;2023-02-20T01:52:27;101637.77;;;8.67;51.13
27304;BME280;14791;52.392;13.092;2023-02-20T01:57:34;101632.02;;;8.66;51.18
27304;BME280;14791;52.392;13.092;2023-02-20T02:00:10;101622.25;;;8.67;51.23
27304;BME280;14791;52.392;13.092;2023-02-20T02:02:45;101622.69;;;8.66;51.26
27304;BME280;14791;52.392;13.092;2023-02-20T02:05:14;101616.03;;;8.66;51.21
27304;BME280;14791;52.392;13.092;2023-02-20T02:07:44;101607.13;;;8.67;51.23
27304;BME280;14791;52.392;13.092;2023-02-20T02:10:19;101610.19;;;8.68;51.29
27304;BME280;14791;52.392;13.092;2023-02-20T02:12:51;101600.81;;;8.70;51.28
27304;BME280;14791;52.392;13.092;2023-02-20T02:15:23;101594.20;;;8.68;51.30
27304;BME280;14791;52.392;13.092;2023-02-20T02:21:19;101588.88;;;8.68;51.29
27304;BME280;14791;52.392;13.092;2023-02-20T02:23:57;101587.67;;;8.65;51.39
27304;BME280;14791;52.392;13.092;2023-02-20T02:37:43;101586.34;;;8.65;51.93
27304;BME280;14791;52.392;13.092;2023-02-20T02:43:07;101573.31;;;8.69;52.00
27304;BME280;14791;52.392;13.092;2023-02-20T02:45:37;101570.91;;;8.73;51.99
27304;BME280;14791;52.392;13.092;2023-02-20T02:48:18;101551.41;;;8.73;52.06
27304;BME280;14791;52.392;13.092;2023-02-20T02:50:43;101553.41;;;8.78;52.10
27304;BME280;14791;52.392;13.092;2023-02-20T02:53:14;101546.51;;;8.84;52.13
27304;BME280;14791;52.392;13.092;2023-02-20T02:55:43;101549.38;;;8.90;52.05
27304;BME280;14791;52.392;13.092;2023-02-20T02:58:13;101538.47;;;8.96;52.05
27304;BME280;14791;52.392;13.092;2023-02-20T03:00:59;101540.86;;;9.02;52.05
27304;BME280;14791;52.392;13.092;2023-02-20T03:03:31;101537.95;;;9.08;52.01
27304;BME280;14791;52.392;13.092;2023-02-20T03:06:11;101539.14;;;9.11;52.01
27304;BME280;14791;52.392;13.092;2023-02-20T03:08:58;101535.00;;;9.14;51.99
27304;BME280;14791;52.392;13.092;2023-02-20T03:11:18;101531.81;;;9.16;52.00
27304;BME280;14791;52.392;13.092;2023-02-20T03:19:28;101520.47;;;9.22;52.04
27304;BME280;14791;52.392;13.092;2023-02-20T03:22:00;101510.23;;;9.23;52.14
27304;BME280;14791;52.392;13.092;2023-02-20T03:24:31;101515.42;;;9.26;52.12
27304;BME280;14791;52.392;13.092;2023-02-20T03:27:04;101499.28;;;9.29;52.11
27304;BME280;14791;52.392;13.092;2023-02-20T03:29:35;101492.89;;;9.33;52.15
27304;BME280;14791;52.392;13.092;2023-02-20T03:32:08;101490.08;;;9.36;52.17
27304;BME280;14791;52.392;13.092;2023-02-20T03:34:57;101489.97;;;9.39;52.16
27304;BME280;14791;52.392;13.092;2023-02-20T03:37:46;101477.55;;;9.38;52.23
27304;BME280;14791;52.392;13.092;2023-02-20T03:40:33;101468.22;;;9.38;52.31
27304;BME280;14791;52.392;13.092;2023-02-20T03:43:22;101481.16;;;9.37;52.37
27304;BME280;14791;52.392;13.092;2023-02-20T03:45:59;101469.55;;;9.38;52.40
27304;BME280;14791;52.392;13.092;2023-02-20T03:48:44;101469.88;;;9.41;52.45
27304;BME280;14791;52.392;13.092;2023-02-20T03:51:14;101470.62;;;9.44;52.47
27304;BME280;14791;52.392;13.092;2023-02-20T03:53:45;101462.09;;;9.46;52.50
27304;BME280;14791;52.392;13.092;2023-02-20T03:56:22;101471.59;;;9.52;52.51
27304;BME280;14791;52.392;13.092;2023-02-20T03:58:50;101464.78;;;9.55;52.51
27304;BME280;14791;52.392;13.092;2023-02-20T04:01:21;101473.91;;;9.59;52.50
27304;BME280;14791;52.392;13.092;2023-02-20T04:03:52;101480.84;;;9.64;52.53
27304;BME280;14791;52.392;13.092;2023-02-20T04:06:24;101485.11;;;9.68;52.53
27304;BME280;14791;52.392;13.092;2023-02-20T04:09:04;101484.95;;;9.71;52.51
27304;BME280;14791;52.392;13.092;2023-02-20T04:11:36;101479.09;;;9.73;52.54
27304;BME280;14791;52.392;13.092;2023-02-20T04:14:07;101475.00;;;9.74;52.58
27304;BME280;14791;52.392;13.092;2023-02-20T04:16:44;101468.20;;;9.77;52.57
27304;BME280;14791;52.392;13.092;2023-02-20T04:19:10;101467.58;;;9.81;52.61
27304;BME280;14791;52.392;13.092;2023-02-20T04:21:41;101462.56;;;9.84;52.66
27304;BME280;14791;52.392;13.092;2023-02-20T04:24:23;101453.01;;;9.88;52.67
27304;BME280;14791;52.392;13.092;2023-02-20T04:26:48;101451.55;;;9.91;52.69
27304;BME280;14791;52.392;13.092;2023-02-20T04:29:18;101454.06;;;9.94;52.74
27304;BME280;14791;52.392;13.092;2023-02-20T04:31:48;101445.91;;;9.97;52.73
27304;BME280;14791;52.392;13.092;2023-02-20T04:34:17;101441.69;;;10.02;52.72
27304;BME280;14791;52.392;13.092;2023-02-20T04:36:47;101440.61;;;10.06;52.75
27304;BME280;14791;52.392;13.092;2023-02-20T04:39:16;101443.59;;;10.09;52.77
27304;BME280;14791;52.392;13.092;2023-02-20T04:41:45;101432.70;;;10.13;52.77
27304;BME280;14791;52.392;13.092;2023-02-20T04:44:14;101414.33;;;10.16;52.76
27304;BME280;14791;52.392;13.092;2023-02-20T04:47:00;101416.30;;;10.21;52.78
27304;BME280;14791;52.392;13.092;2023-02-20T04:49:31;101409.14;;;10.21;52.85
27304;BME280;14791;52.392;13.092;2023-02-20T04:52:01;101408.54;;;10.25;52.88
27304;BME280;14791;52.392;13.092;2023-02-20T04:54:30;101393.72;;;10.28;52.89
27304;BME280;14791;52.392;13.092;2023-02-20T04:57:00;101391.30;;;10.32;52.89
27304;BME280;14791;52.392;13.092;2023-02-20T04:59:30;101404.88;;;10.36;52.88
27304;BME280;14791;52.392;13.092;2023-02-20T05:01:59;101409.13;;;10.40;52.85
27304;BME280;14791;52.392;13.092;2023-02-20T05:04:28;101387.53;;;10.45;52.82
27304;BME280;14791;52.392;13.092;2023-02-20T05:06:57;101387.53;;;10.45;52.82
27304;BME280;14791;52.392;13.092;2023-02-20T05:09:27;101375.66;;;10.51;52.67
27304;BME280;14791;52.392;13.092;2023-02-20T05:11:55;101375.66;;;10.51;52.67
27304;BME280;14791;52.392;13.092;2023-02-20T05:14:24;101376.45;;;10.53;52.76
27304;BME280;14791;52.392;13.092;2023-02-20T05:16:53;101345.19;;;10.55;52.77
27304;BME280;14791;52.392;13.092;2023-02-20T05:19:22;101333.95;;;10.57;52.79
27304;BME280;14791;52.392;13.092;2023-02-20T05:21:51;101330.63;;;10.60;52.77
27304;BME280;14791;52.392;13.092;2023-02-20T05:24:38;101340.30;;;10.63;52.77
27304;BME280;14791;52.392;13.092;2023-02-20T05:27:07;101340.88;;;10.61;52.80
27304;BME280;14791;52.392;13.092;2023-02-20T05:29:36;101349.81;;;10.60;52.82
27304;BME280;14791;52.392;13.092;2023-02-20T05:32:05;101338.34;;;10.58;52.88
27304;BME280;14791;52.392;13.092;2023-02-20T05:34:34;101340.16;;;10.57;52.88
27304;BME280;14791;52.392;13.092;2023-02-20T05:37:03;101341.97;;;10.57;52.90
27304;BME280;14791;52.392;13.092;2023-02-20T05:39:32;101336.80;;;10.54;52.96
27304;BME280;14791;52.392;13.092;2023-02-20T05:42:01;101338.74;;;10.50;53.00
27304;BME280;14791;52.392;13.092;2023-02-20T05:44:30;101333.50;;;10.49;53.08
27304;BME280;14791;52.392;13.092;2023-02-20T05:46:59;101330.97;;;10.46;53.20
27304;BME280;14791;52.392;13.092;2023-02-20T05:49:28;101333.80;;;10.42;53.35
27304;BME280;14791;52.392;13.092;2023-02-20T05:51:58;101328.94;;;10.42;53.39
27304;BME280;14791;52.392;13.092;2023-02-20T05:54:28;101322.33;;;10.40;53.43
27304;BME280;14791;52.392;13.092;2023-02-20T05:56:56;101327.30;;;10.39;53.48
27304;BME280;14791;52.392;13.092;2023-02-20T05:59:25;101321.16;;;10.37;53.52
27304;BME280;14791;52.392;13.092;2023-02-20T06:01:58;101327.43;;;10.36;53.56
27304;BME280;14791;52.392;13.092;2023-02-20T06:04:29;101321.54;;;10.38;53.58
27304;BME280;14791;52.392;13.092;2023-02-20T06:06:57;101317.53;;;10.38;53.66
27304;BME280;14791;52.392;13.092;2023-02-20T06:09:26;101312.13;;;10.40;53.67
27304;BME280;14791;52.392;13.092;2023-02-20T06:11:56;101296.96;;;10.40;53.67
27304;BME280;14791;52.392;13.092;2023-02-20T06:14:25;101296.96;;;10.40;53.67
27304;BME280;14791;52.392;13.092;2023-02-20T06:16:56;101294.43;;;10.46;53.69
27304;BME280;14791;52.392;13.092;2023-02-20T06:19:25;101282.96;;;10.53;53.59
27304;BME280;14791;52.392;13.092;2023-02-20T06:21:54;101282.96;;;10.53;53.59
27304;BME280;14791;52.392;13.092;2023-02-20T06:24:25;101284.23;;;10.54;53.59
27304;BME280;14791;52.392;13.092;2023-02-20T06:26:56;101280.53;;;10.57;53.73
27304;BME280;14791;52.392;13.092;2023-02-20T06:29:24;101282.72;;;10.57;53.59
27304;BME280;14791;52.392;13.092;2023-02-20T06:31:56;101271.48;;;10.59;53.62
27304;BME280;14791;52.392;13.092;2023-02-20T06:34:24;101262.44;;;10.62;53.66
27304;BME280;14791;52.392;13.092;2023-02-20T06:36:54;101270.28;;;10.65;53.64
27304;BME280;14791;52.392;13.092;2023-02-20T06:39:23;101260.79;;;10.68;53.60
27304;BME280;14791;52.392;13.092;2023-02-20T06:41:52;101242.84;;;10.70;53.69
27304;BME280;14791;52.392;13.092;2023-02-20T06:44:21;101240.58;;;10.71;53.70
27304;BME280;14791;52.392;13.092;2023-02-20T06:46:50;101249.75;;;10.74;53.70
27304;BME280;14791;52.392;13.092;2023-02-20T06:49:19;101271.91;;;10.76;53.62
27304;BME280;14791;52.392;13.092;2023-02-20T06:51:52;101278.05;;;10.78;53.69
27304;BME280;14791;52.392;13.092;2023-02-20T06:54:22;101268.28;;;10.77;53.90
27304;BME280;14791;52.392;13.092;2023-02-20T06:56:50;101268.28;;;10.77;53.90
27304;BME280;14791;52.392;13.092;2023-02-20T06:59:19;101259.34;;;10.78;53.82
27304;BME280;14791;52.392;13.092;2023-02-20T07:01:48;101220.41;;;10.81;53.81
27304;BME280;14791;52.392;13.092;2023-02-20T07:04:23;101263.10;;;10.83;53.75
27304;BME280;14791;52.392;13.092;2023-02-20T07:06:53;101242.02;;;10.85;53.61
27304;BME280;14791;52.392;13.092;2023-02-20T07:09:23;101221.50;;;10.86;53.55
27304;BME280;14791;52.392;13.092;2023-02-20T07:11:52;101219.98;;;10.89;53.49
27304;BME280;14791;52.392;13.092;2023-02-20T07:14:22;101242.30;;;10.97;53.45
27304;BME280;14791;52.392;13.092;2023-02-20T07:16:51;101250.93;;;11.02;53.37
27304;BME280;14791;52.392;13.092;2023-02-20T07:19:20;101246.11;;;11.09;53.16
27304;BME280;14791;52.392;13.092;2023-02-20T07:21:49;101234.98;;;11.16;52.98
27304;BME280;14791;52.392;13.092;2023-02-20T07:24:18;101219.53;;;11.21;52.91
27304;BME280;14791;52.392;13.092;2023-02-20T07:26:47;101229.02;;;11.27;52.75
27304;BME280;14791;52.392;13.092;2023-02-20T07:29:16;101230.88;;;11.34;52.57
27304;BME280;14791;52.392;13.092;2023-02-20T07:31:45;101210.63;;;11.37;52.44
27304;BME280;14791;52.392;13.092;2023-02-20T07:34:14;101204.27;;;11.46;52.33
27304;BME280;14791;52.392;13.092;2023-02-20T07:36:43;101224.92;;;11.52;52.23
27304;BME280;14791;52.392;13.092;2023-02-20T07:39:12;101230.79;;;11.58;52.13
27304;BME280;14791;52.392;13.092;2023-02-20T07:41:41;101219.74;;;11.64;51.96
27304;BME280;14791;52.392;13.092;2023-02-20T07:44:12;101205.62;;;11.69;51.83
27304;BME280;14791;52.392;13.092;2023-02-20T07:46:41;101225.50;;;11.73;51.75
27304;BME280;14791;52.392;13.092;2023-02-20T07:49:11;101213.19;;;11.77;51.67
27304;BME280;14791;52.392;13.092;2023-02-20T07:51:40;101210.23;;;11.82;51.58
27304;BME280;14791;52.392;13.092;2023-02-20T07:54:08;101208.58;;;11.88;51.47
27304;BME280;14791;52.392;13.092;2023-02-20T07:56:39;101187.27;;;11.94;51.31
27304;BME280;14791;52.392;13.092;2023-02-20T07:59:08;101191.09;;;11.97;51.25
27304;BME280;14791;52.392;13.092;2023-02-20T08:01:37;101184.97;;;12.02;51.21
27304;BME280;14791;52.392;13.092;2023-02-20T08:04:06;101187.78;;;12.07;51.09
27304;BME280;14791;52.392;13.092;2023-02-20T08:06:35;101188.44;;;12.11;51.07
27304;BME280;14791;52.392;13.092;2023-02-20T08:09:04;101183.77;;;12.15;50.90
27304;BME280;14791;52.392;13.092;2023-02-20T08:11:34;101178.22;;;12.18;50.82
27304;BME280;14791;52.392;13.092;2023-02-20T08:14:04;101169.05;;;12.22;50.82
27304;BME280;14791;52.392;13.092;2023-02-20T08:16:33;101160.45;;;12.24;50.77
27304;BME280;14791;52.392;13.092;2023-02-20T08:19:02;101163.30;;;12.28;50.74
27304;BME280;14791;52.392;13.092;2023-02-20T08:21:31;101144.83;;;12.30;50.69
27304;BME280;14791;52.392;13.092;2023-02-20T08:24:00;101148.56;;;12.35;50.64
27304;BME280;14791;52.392;13.092;2023-02-20T08:26:29;101147.14;;;12.37;50.59
27304;BME280;14791;52.392;13.092;2023-02-20T08:28:58;101137.20;;;12.39;50.57
27304;BME280;14791;52.392;13.092;2023-02-20T08:31:27;101135.17;;;12.42;50.49
27304;BME280;14791;52.392;13.092;2023-02-20T08:33:56;101128.30;;;12.45;50.43
27304;BME280;14791;52.392;13.092;2023-02-20T08:36:24;101134.31;;;12.49;50.26
27304;BME280;14791;52.392;13.092;2023-02-20T08:38:53;101137.67;;;12.52;50.28
27304;BME280;14791;52.392;13.092;2023-02-20T08:41:23;101134.30;;;12.56;49.97
27304;BME280;14791;52.392;13.092;2023-02-20T08:43:52;101128.45;;;12.56;50.07
27304;BME280;14791;52.392;13.092;2023-02-20T08:46:21;101114.48;;;12.59;50.08
27304;BME280;14791;52.392;13.092;2023-02-20T08:48:50;101109.89;;;12.61;50.08
27304;BME280;14791;52.392;13.092;2023-02-20T08:51:20;101098.97;;;12.64;50.02
27304;BME280;14791;52.392;13.092;2023-02-20T08:53:49;101100.12;;;12.67;49.97
27304;BME280;14791;52.392;13.092;2023-02-20T08:56:19;101094.56;;;12.70;49.79
27304;BME280;14791;52.392;13.092;2023-02-20T08:58:49;101097.61;;;12.71;49.83
27304;BME280;14791;52.392;13.092;2023-02-20T09:01:17;101081.53;;;12.71;49.77
27304;BME280;14791;52.392;13.092;2023-02-20T09:03:46;101090.13;;;12.76;49.81
27304;BME280;14791;52.392;13.092;2023-02-20T09:06:16;101084.19;;;12.78;49.84
27304;BME280;14791;52.392;13.092;2023-02-20T09:08:45;101075.97;;;12.81;49.81
27304;BME280;14791;52.392;13.092;2023-02-20T09:11:15;101063.20;;;12.85;49.75
27304;BME280;14791;52.392;13.092;2023-02-20T09:13:45;101053.52;;;12.89;49.79
27304;BME280;14791;52.392;13.092;2023-02-20T09:16:15;101068.06;;;12.92;49.72
27304;BME280;14791;52.392;13.092;2023-02-20T09:18:45;101050.05;;;12.94;49.51
27304;BME280;14791;52.392;13.092;2023-02-20T09:21:16;101040.84;;;12.98;49.46
27304;BME280;14791;52.392;13.092;2023-02-20T09:23:45;101028.20;;;13.01;49.56
27304;BME280;14791;52.392;13.092;2023-02-20T09:26:15;101027.02;;;13.05;49.48
27304;BME280;14791;52.392;13.092;2023-02-20T09:28:44;101022.80;;;13.08;49.42
27304;BME280;14791;52.392;13.092;2023-02-20T09:31:13;101021.25;;;13.11;49.40
27304;BME280;14791;52.392;13.092;2023-02-20T09:33:45;101007.89;;;13.16;49.23
27304;BME280;14791;52.392;13.092;2023-02-20T09:36:14;101013.53;;;13.19;49.10
27304;BME280;14791;52.392;13.092;2023-02-20T09:38:43;100991.48;;;13.21;49.25
27304;BME280;14791;52.392;13.092;2023-02-20T09:44:13;100997.23;;;13.29;49.33
27304;BME280;14791;52.392;13.092;2023-02-20T09:46:44;101002.02;;;13.31;49.24
27304;BME280;14791;52.392;13.092;2023-02-20T09:49:28;100995.94;;;13.35;49.24
27304;BME280;14791;52.392;13.092;2023-02-20T09:52:02;100980.88;;;13.39;49.10
27304;BME280;14791;52.392;13.092;2023-02-20T09:54:39;100987.75;;;13.44;49.02
27304;BME280;14791;52.392;13.092;2023-02-20T09:57:23;100992.30;;;13.49;49.00
27304;BME280;14791;52.392;13.092;2023-02-20T10:00:05;100969.67;;;13.53;48.78
27304;BME280;14791;52.392;13.092;2023-02-20T10:02:43;100985.91;;;13.57;48.77
27304;BME280;14791;52.392;13.092;2023-02-20T10:05:18;100977.66;;;13.60;48.66
27304;BME280;14791;52.392;13.092;2023-02-20T10:07:44;100997.08;;;13.64;48.68
27304;BME280;14791;52.392;13.092;2023-02-20T10:10:26;100985.53;;;13.69;48.47
27304;BME280;14791;52.392;13.092;2023-02-20T10:13:21;100968.14;;;13.74;48.40
27304;BME280;14791;52.392;13.092;2023-02-20T10:15:45;100973.28;;;13.77;48.25
27304;BME280;14791;52.392;13.092;2023-02-20T10:18:24;100970.47;;;13.79;48.35
27304;BME280;14791;52.392;13.092;2023-02-20T10:21:06;100987.59;;;13.83;48.10
27304;BME280;14791;52.392;13.092;2023-02-20T10:28:49;100968.90;;;13.95;48.14
27304;BME280;14791;52.392;13.092;2023-02-20T10:31:48;100944.63;;;13.96;48.17
27304;BME280;14791;52.392;13.092;2023-02-20T10:34:26;100963.82;;;14.03;48.09
27304;BME280;14791;52.392;13.092;2023-02-20T10:36:55;100953.83;;;14.05;48.11
27304;BME280;14791;52.392;13.092;2023-02-20T10:39:25;100960.70;;;14.09;47.97
27304;BME280;14791;52.392;13.092;2023-02-20T10:42:09;100959.52;;;14.13;47.84
27304;BME280;14791;52.392;13.092;2023-02-20T10:45:00;100950.14;;;14.19;47.74
27304;BME280;14791;52.392;13.092;2023-02-20T10:47:31;100940.05;;;14.22;47.89
27304;BME280;14791;52.392;13.092;2023-02-20T10:50:08;100932.70;;;14.24;47.88
27304;BME280;14791;52.392;13.092;2023-02-20T10:52:45;100925.55;;;14.31;47.89
27304;BME280;14791;52.392;13.092;2023-02-20T10:55:26;100914.81;;;14.36;47.67
27304;BME280;14791;52.392;13.092;2023-02-20T10:58:17;100910.83;;;14.42;47.77
27304;BME280;14791;52.392;13.092;2023-02-20T11:00:53;100920.98;;;14.44;47.61
27304;BME280;14791;52.392;13.092;2023-02-20T11:03:26;100904.13;;;14.47;47.44
27304;BME280;14791;52.392;13.092;2023-02-20T11:05:56;100901.09;;;14.52;47.34
27304;BME280;14791;52.392;13.092;2023-02-20T11:08:26;100907.60;;;14.55;47.35
27304;BME280;14791;52.392;13.092;2023-02-20T11:11:05;100905.06;;;14.59;47.36
27304;BME280;14791;52.392;13.092;2023-02-20T11:13:30;100899.83;;;14.63;47.36
27304;BME280;14791;52.392;13.092;2023-02-20T11:15:59;100892.02;;;14.66;47.42
27304;BME280;14791;52.392;13.092;2023-02-20T11:18:35;100907.80;;;14.71;47.45
27304;BME280;14791;52.392;13.092;2023-02-20T11:21:06;100881.91;;;14.75;47.11
27304;BME280;14791;52.392;13.092;2023-02-20T11:26:24;100888.14;;;14.81;47.12
27304;BME280;14791;52.392;13.092;2023-02-20T11:31:32;100884.95;;;14.82;47.23
27304;BME280;14791;52.392;13.092;2023-02-20T11:34:03;100880.32;;;14.84;47.27
27304;BME280;14791;52.392;13.092;2023-02-20T11:36:38;100872.89;;;14.87;47.40
27304;BME280;14791;52.392;13.092;2023-02-20T11:39:20;100875.97;;;14.94;47.20
27304;BME280;14791;52.392;13.092;2023-02-20T11:42:03;100875.22;;;14.98;47.26
27304;BME280;14791;52.392;13.092;2023-02-20T11:44:23;100867.79;;;15.01;47.31
27304;BME280;14791;52.392;13.092;2023-02-20T11:47:07;100859.61;;;15.08;47.27
27304;BME280;14791;52.392;13.092;2023-02-20T11:49:27;100881.13;;;15.14;47.23
27304;BME280;14791;52.392;13.092;2023-02-20T11:52:18;100867.66;;;15.20;47.26
27304;BME280;14791;52.392;13.092;2023-02-20T11:55:07;100868.79;;;15.23;47.31
27304;BME280;14791;52.392;13.092;2023-02-20T11:57:23;100848.11;;;15.23;47.52
27304;BME280;14791;52.392;13.092;2023-02-20T12:00:17;100864.64;;;15.30;47.35
27304;BME280;14791;52.392;13.092;2023-02-20T12:02:26;100867.92;;;15.34;47.44
27304;BME280;14791;52.392;13.092;2023-02-20T12:05:07;100858.88;;;15.40;47.47
27304;BME280;14791;52.392;13.092;2023-02-20T12:07:52;100857.91;;;15.47;47.36
27304;BME280;14791;52.392;13.092;2023-02-20T12:10:23;100851.66;;;15.52;47.47
27304;BME280;14791;52.392;13.092;2023-02-20T12:12:53;100854.22;;;15.59;47.50
27304;BME280;14791;52.392;13.092;2023-02-20T12:15:25;100867.31;;;15.64;47.40
27304;BME280;14791;52.392;13.092;2023-02-20T12:20:38;100852.59;;;15.68;47.02
27304;BME280;14791;52.392;13.092;2023-02-20T12:23:45;100854.20;;;15.65;47.05
27304;BME280;14791;52.392;13.092;2023-02-20T12:37:48;100868.66;;;15.36;47.43
27304;BME280;14791;52.392;13.092;2023-02-20T12:40:46;100863.75;;;15.29;47.64
27304;BME280;14791;52.392;13.092;2023-02-20T12:46:33;100857.75;;;15.20;47.92
27304;BME280;14791;52.392;13.092;2023-02-20T12:55:05;100867.67;;;15.08;48.50
27304;BME280;14791;52.392;13.092;2023-02-20T13:00:21;100851.02;;;15.03;48.68
27304;BME280;14791;52.392;13.092;2023-02-20T13:02:47;100862.77;;;15.02;48.74
27304;BME280;14791;52.392;13.092;2023-02-20T13:05:19;100865.45;;;15.02;48.81
27304;BME280;14791;52.392;13.092;2023-02-20T13:07:54;100860.56;;;15.02;48.86
27304;BME280;14791;52.392;13.092;2023-02-20T13:10:26;100854.34;;;15.01;48.91
27304;BME280;14791;52.392;13.092;2023-02-20T13:12:55;100861.17;;;15.00;48.98
27304;BME280;14791;52.392;13.092;2023-02-20T13:21:02;100860.30;;;14.94;49.14
27304;BME280;14791;52.392;13.092;2023-02-20T13:23:34;100863.83;;;14.88;49.27
27304;BME280;14791;52.392;13.092;2023-02-20T13:28:52;100866.88;;;14.84;49.44
27304;BME280;14791;52.392;13.092;2023-02-20T13:31:23;100864.19;;;14.78;49.59
27304;BME280;14791;52.392;13.092;2023-02-20T13:36:45;100849.16;;;14.76;49.77
27304;BME280;14791;52.392;13.092;2023-02-20T13:52:39;100854.06;;;14.52;50.36
27304;BME280;14791;52.392;13.092;2023-02-20T13:55:15;100851.22;;;14.48;50.48
27304;BME280;14791;52.392;13.092;2023-02-20T13:57:50;100856.70;;;14.41;50.64
27304;BME280;14791;52.392;13.092;2023-02-20T14:00:45;100841.17;;;14.39;50.70
27304;BME280;14791;52.392;13.092;2023-02-20T14:03:26;100844.59;;;14.35;50.82
27304;BME280;14791;52.392;13.092;2023-02-20T14:06:05;100854.59;;;14.33;50.87
27304;BME280;14791;52.392;13.092;2023-02-20T14:08:36;100847.13;;;14.31;50.94
27304;BME280;14791;52.392;13.092;2023-02-20T14:11:08;100852.64;;;14.30;50.92
27304;BME280;14791;52.392;13.092;2023-02-20T14:13:39;100847.73;;;14.29;50.96
27304;BME280;14791;52.392;13.092;2023-02-20T14:18:55;100844.83;;;14.32;51.05
27304;BME280;14791;52.392;13.092;2023-02-20T14:21:25;100847.03;;;14.33;51.08
27304;BME280;14791;52.392;13.092;2023-02-20T14:23:56;100841.41;;;14.36;50.98
27304;BME280;14791;52.392;13.092;2023-02-20T14:26:32;100870.86;;;14.37;50.88
27304;BME280;14791;52.392;13.092;2023-02-20T14:29:01;100862.66;;;14.39;50.87
27304;BME280;14791;52.392;13.092;2023-02-20T14:31:33;100849.98;;;14.41;50.88
27304;BME280;14791;52.392;13.092;2023-02-20T14:34:21;100856.23;;;14.41;50.84
27304;BME280;14791;52.392;13.092;2023-02-20T14:39:40;100858.03;;;14.41;50.87
27304;BME280;14791;52.392;13.092;2023-02-20T14:42:17;100869.38;;;14.39;50.97
27304;BME280;14791;52.392;13.092;2023-02-20T14:45:03;100882.72;;;14.40;50.91